This is the latest recevied weather packets stored in our database for station/object K4CRS-13. If no packets are shown the sender has not sent any weather packets the latest 10 day(s).
| Time | Temp. | Humidity | Pressure | Rain* | Wind** | Luminosity | Snow |
|---|---|---|---|---|---|---|---|
| 1787616241 | 29.44° C | 60% | 1050.4 hPa | 0 mm | - | 28 W/m² | - |
| 1787615939 | 30° C | 59% | 1050.5 hPa | 0 mm | - | 38 W/m² | - |
| 1787615634 | 30° C | 57% | 1050.7 hPa | 0 mm | - | 47 W/m² | - |
| 1787615330 | 30° C | 57% | 1050.4 hPa | 0 mm | - | 56 W/m² | - |
| 1787615026 | 30.56° C | 57% | 1050.3 hPa | 0 mm | - | 63 W/m² | - |
| 1787614722 | 30.56° C | 54% | 1050.3 hPa | 0 mm | - | 81 W/m² | - |
| 1787614418 | 31.11° C | 55% | 1050.2 hPa | 0 mm | - | 100 W/m² | - |
| 1787614115 | 31.11° C | 53% | 1050.3 hPa | 0 mm | - | 111 W/m² | - |
| 1787613811 | 31.11° C | 52% | 1050.4 hPa | 0 mm | - | 119 W/m² | - |
| 1787613506 | 31.11° C | 52% | 1050.5 hPa | 0 mm | - | 126 W/m² | - |
| 1787613201 | 31.11° C | 51% | 1050.4 hPa | 0 mm | - | 130 W/m² | - |
| 1787612898 | 31.11° C | 51% | 1050.3 hPa | 0 mm | - | 131 W/m² | - |
| 1787612594 | 31.11° C | 51% | 1050.5 hPa | 0 mm | - | 133 W/m² | - |
| 1787612290 | 31.11° C | 52% | 1050.5 hPa | 0 mm | - | 113 W/m² | - |
| 1787611986 | 31.11° C | 51% | 1050.7 hPa | 0 mm | - | 124 W/m² | - |
| 1787611682 | 31.67° C | 51% | 1050.6 hPa | 0 mm | - | 138 W/m² | - |
| 1787611378 | 32.22° C | 50% | 1050.6 hPa | 0 mm | - | 157 W/m² | - |
| 1787611072 | 31.67° C | 48% | 1050.5 hPa | 0 mm | - | 216 W/m² | - |
| 1787610769 | 32.22° C | 47% | 1050.7 hPa | 0 mm | - | 158 W/m² | - |
| 1787610464 | 32.22° C | 47% | 1050.3 hPa | 0 mm | - | 254 W/m² | - |
| 1787610164 | 31.67° C | 50% | 1050.4 hPa | 0 mm | - | 232 W/m² | - |
| 1787609863 | 31.67° C | 48% | 1050.5 hPa | 0 mm | - | 237 W/m² | - |
| 1787609557 | 32.22° C | 47% | 1050.7 hPa | 0 mm | - | 261 W/m² | - |
| 1787609251 | 32.78° C | 50% | 1050.6 hPa | 0 mm | - | 243 W/m² | - |
| 1787608946 | 32.78° C | 46% | 1050.4 hPa | 0 mm | - | 289 W/m² | - |
* Rain latest hour (hover to see other rain measurements)
** Current wind speed in m/s (hover to see current wind gust speed)